createdAt,value
2023-02-09T00:01:21.345Z,22.49
2023-02-09T00:03:50.766Z,22.48
2023-02-09T00:06:22.947Z,22.44
2023-02-09T00:08:52.018Z,22.40
2023-02-09T00:11:26.196Z,22.37
2023-02-09T00:13:55.342Z,22.33
2023-02-09T00:16:31.654Z,22.37
2023-02-09T00:19:00.866Z,22.40
2023-02-09T00:21:30.170Z,22.45
2023-02-09T00:23:59.365Z,22.48
2023-02-09T00:26:28.821Z,22.53
2023-02-09T00:28:57.978Z,22.57
2023-02-09T00:31:27.186Z,22.57
2023-02-09T00:33:56.358Z,22.58
2023-02-09T00:36:25.600Z,22.59
2023-02-09T00:38:54.833Z,22.61
2023-02-09T00:41:25.530Z,22.60
2023-02-09T00:43:56.789Z,22.61
2023-02-09T00:46:27.469Z,22.61
2023-02-09T00:48:56.708Z,22.63
2023-02-09T00:51:25.999Z,22.68
2023-02-09T00:53:57.451Z,22.72
2023-02-09T00:56:26.653Z,22.78
2023-02-09T00:58:55.725Z,22.84
2023-02-09T01:01:25.013Z,22.89
2023-02-09T01:03:54.536Z,22.97
2023-02-09T01:06:23.874Z,23.08
2023-02-09T01:08:52.981Z,23.17
2023-02-09T01:11:25.258Z,23.25
2023-02-09T01:13:54.520Z,23.34
2023-02-09T01:16:28.216Z,23.39
2023-02-09T01:19:07.484Z,23.44
2023-02-09T01:21:36.058Z,23.51
2023-02-09T01:24:05.299Z,23.58
2023-02-09T01:26:34.623Z,23.65
2023-02-09T01:29:03.699Z,23.73
2023-02-09T01:31:33.509Z,23.79
2023-02-09T01:34:05.593Z,23.85
2023-02-09T01:36:36.331Z,23.91
2023-02-09T01:39:05.476Z,23.96
2023-02-09T01:41:37.831Z,24.01
2023-02-09T01:44:07.766Z,24.06
2023-02-09T01:46:37.201Z,24.09
2023-02-09T01:49:22.010Z,24.15
2023-02-09T01:51:52.505Z,24.21
2023-02-09T01:54:26.108Z,24.26
2023-02-09T01:56:57.751Z,24.29
2023-02-09T01:59:27.208Z,24.33
2023-02-09T02:01:56.492Z,24.39
2023-02-09T02:04:25.706Z,24.44
2023-02-09T02:06:55.890Z,24.49
2023-02-09T02:09:25.112Z,24.52
2023-02-09T02:11:54.481Z,24.57
2023-02-09T02:14:30.755Z,24.61
2023-02-09T02:17:04.014Z,24.65
2023-02-09T02:19:46.754Z,24.70
2023-02-09T02:22:29.307Z,24.73
2023-02-09T02:25:10.738Z,24.77
2023-02-09T02:27:45.499Z,24.81
2023-02-09T02:30:20.556Z,24.86
2023-02-09T02:32:51.302Z,24.91
2023-02-09T02:35:38.262Z,24.94
2023-02-09T02:38:23.628Z,24.99
2023-02-09T02:40:58.058Z,25.03
2023-02-09T02:43:45.154Z,25.07
2023-02-09T02:46:29.179Z,25.12
2023-02-09T02:49:01.900Z,25.15
2023-02-09T02:51:32.278Z,25.18
2023-02-09T02:54:02.758Z,25.23
2023-02-09T02:56:32.717Z,25.26
2023-02-09T02:59:04.389Z,25.30
2023-02-09T03:01:35.238Z,25.33
2023-02-09T03:04:04.783Z,25.36
2023-02-09T03:06:34.290Z,25.40
2023-02-09T03:09:03.409Z,25.45
2023-02-09T03:11:33.829Z,25.47
2023-02-09T03:14:22.425Z,25.52
2023-02-09T03:17:01.835Z,25.57
2023-02-09T03:19:47.472Z,25.60
2023-02-09T03:22:23.151Z,25.64
2023-02-09T03:24:53.781Z,25.68
2023-02-09T03:27:39.479Z,25.71
2023-02-09T03:30:09.024Z,25.78
2023-02-09T03:32:42.294Z,25.83
2023-02-09T03:35:11.649Z,25.86
2023-02-09T03:37:40.745Z,25.89
2023-02-09T03:40:12.215Z,25.93
2023-02-09T03:42:41.413Z,25.96
2023-02-09T03:45:10.510Z,25.98
2023-02-09T03:47:39.539Z,26.01
2023-02-09T03:50:08.753Z,26.00
2023-02-09T03:52:37.801Z,25.78
2023-02-09T03:55:07.006Z,25.63
2023-02-09T03:57:36.314Z,25.59
2023-02-09T04:00:05.519Z,25.61
2023-02-09T04:02:34.661Z,25.61
2023-02-09T04:05:05.766Z,25.61
2023-02-09T04:07:34.700Z,25.61
2023-02-09T04:10:03.760Z,25.61
2023-02-09T04:12:33.159Z,25.60
2023-02-09T04:15:02.225Z,25.59
2023-02-09T04:17:31.282Z,25.58
2023-02-09T04:20:00.414Z,25.56
2023-02-09T04:22:29.582Z,25.55
2023-02-09T04:24:58.719Z,25.53
2023-02-09T04:27:29.238Z,25.52
2023-02-09T04:29:58.314Z,25.50
2023-02-09T04:32:27.348Z,25.49
2023-02-09T04:34:56.516Z,25.47
2023-02-09T04:37:28.049Z,25.44
2023-02-09T04:39:57.165Z,25.42
2023-02-09T04:42:26.215Z,25.39
2023-02-09T04:44:56.732Z,25.37
2023-02-09T04:47:25.870Z,25.36
2023-02-09T04:49:55.000Z,25.32
2023-02-09T04:52:24.044Z,25.30
2023-02-09T04:54:53.097Z,25.28
2023-02-09T04:57:39.562Z,25.26
2023-02-09T05:00:09.109Z,25.23
2023-02-09T05:02:38.829Z,25.22
2023-02-09T05:05:08.094Z,25.19
2023-02-09T05:07:37.954Z,25.16
2023-02-09T05:10:07.409Z,25.13
2023-02-09T05:12:36.550Z,25.10
2023-02-09T05:15:06.608Z,25.07
2023-02-09T05:17:38.144Z,25.06
2023-02-09T05:20:07.898Z,25.03
2023-02-09T05:22:36.949Z,25.01
2023-02-09T05:25:05.980Z,24.98
2023-02-09T05:27:35.151Z,24.95
2023-02-09T05:30:04.302Z,24.92
2023-02-09T05:32:33.368Z,24.89
2023-02-09T05:35:03.926Z,24.88
2023-02-09T05:37:32.981Z,24.80
2023-02-09T05:40:02.025Z,24.79
2023-02-09T05:42:31.136Z,24.75
2023-02-09T05:45:00.322Z,24.73
2023-02-09T05:47:31.689Z,24.71
2023-02-09T05:50:00.749Z,24.68
2023-02-09T05:52:29.915Z,24.67
2023-02-09T05:54:59.039Z,24.63
2023-02-09T05:57:28.256Z,24.63
2023-02-09T05:59:57.280Z,24.61
2023-02-09T06:02:26.517Z,24.58
2023-02-09T06:04:55.642Z,24.55
2023-02-09T06:07:24.708Z,24.52
2023-02-09T06:09:53.848Z,24.50
2023-02-09T06:12:22.901Z,24.47
2023-02-09T06:14:51.942Z,24.46
2023-02-09T06:17:21.042Z,24.42
2023-02-09T06:19:50.264Z,24.40
2023-02-09T06:22:19.564Z,24.37
2023-02-09T06:24:49.371Z,24.34
2023-02-09T06:27:19.098Z,24.30
2023-02-09T06:29:49.930Z,24.28
2023-02-09T06:32:19.415Z,24.25
2023-02-09T06:34:49.149Z,24.23
2023-02-09T06:37:20.824Z,24.19
2023-02-09T06:39:50.118Z,24.16
2023-02-09T06:42:20.077Z,24.14
2023-02-09T06:44:50.105Z,24.11
2023-02-09T06:47:20.194Z,24.09
2023-02-09T06:49:50.036Z,24.06
2023-02-09T06:52:20.168Z,24.02
2023-02-09T06:54:49.220Z,24.00
2023-02-09T06:57:19.342Z,23.98
2023-02-09T06:59:49.160Z,23.95
2023-02-09T07:02:19.210Z,23.94
2023-02-09T07:04:49.249Z,23.88
2023-02-09T07:07:19.226Z,23.87
2023-02-09T07:09:50.552Z,23.72
2023-02-09T07:12:20.144Z,23.83
2023-02-09T07:14:50.121Z,23.79
2023-02-09T07:17:20.152Z,23.74
2023-02-09T07:19:50.199Z,23.74
2023-02-09T07:22:20.146Z,23.71
2023-02-09T07:24:49.298Z,23.70
2023-02-09T07:27:21.819Z,23.67
2023-02-09T07:29:50.865Z,23.64
2023-02-09T07:32:20.210Z,23.61
2023-02-09T07:34:50.384Z,23.58
2023-02-09T07:37:20.216Z,23.56
2023-02-09T07:39:50.257Z,23.54
2023-02-09T07:42:21.125Z,23.52
2023-02-09T07:44:50.797Z,23.50
2023-02-09T07:47:20.245Z,23.46
2023-02-09T07:49:50.224Z,23.43
2023-02-09T07:52:20.378Z,23.40
2023-02-09T07:54:54.316Z,23.38
2023-02-09T07:57:22.487Z,23.36
2023-02-09T07:59:51.664Z,23.33
2023-02-09T08:02:27.941Z,23.31
2023-02-09T08:04:57.728Z,23.28
2023-02-09T08:07:27.415Z,23.26
2023-02-09T08:09:56.590Z,23.23
2023-02-09T08:12:27.948Z,23.20
2023-02-09T08:14:57.840Z,23.17
2023-02-09T08:17:28.261Z,23.14
2023-02-09T08:20:04.326Z,23.13
2023-02-09T08:22:35.017Z,23.10
2023-02-09T08:25:04.072Z,23.07
2023-02-09T08:27:33.116Z,23.04
2023-02-09T08:30:02.249Z,23.01
2023-02-09T08:32:31.337Z,22.99
2023-02-09T08:35:00.460Z,22.96
2023-02-09T08:37:29.975Z,22.94
2023-02-09T08:39:59.034Z,22.91
2023-02-09T08:42:28.899Z,22.89
2023-02-09T08:44:58.090Z,22.86
2023-02-09T08:47:27.157Z,22.84
2023-02-09T08:49:56.264Z,22.82
2023-02-09T08:52:25.323Z,22.78
2023-02-09T08:54:54.466Z,22.76
2023-02-09T08:57:31.920Z,22.76
2023-02-09T08:59:54.034Z,22.76
2023-02-09T09:02:23.093Z,22.77
2023-02-09T09:04:52.195Z,22.80
2023-02-09T09:07:21.318Z,22.84
2023-02-09T09:09:50.501Z,22.87
2023-02-09T09:12:19.595Z,22.90
2023-02-09T09:14:49.561Z,22.93
2023-02-09T09:17:19.609Z,22.96
2023-02-09T09:19:49.659Z,22.99
2023-02-09T09:22:19.580Z,23.04
2023-02-09T09:24:49.672Z,23.04
2023-02-09T09:27:18.770Z,23.10
2023-02-09T09:29:49.593Z,23.13
2023-02-09T09:32:21.054Z,23.15
2023-02-09T09:34:50.522Z,23.15
2023-02-09T09:37:23.324Z,23.14
2023-02-09T09:39:52.391Z,23.10
2023-02-09T09:42:22.926Z,23.13
2023-02-09T09:44:52.043Z,23.12
2023-02-09T09:47:22.456Z,23.09
2023-02-09T09:49:51.502Z,23.09
2023-02-09T09:52:21.863Z,23.08
2023-02-09T09:54:51.093Z,23.06
2023-02-09T09:57:21.327Z,23.04
2023-02-09T09:59:50.679Z,23.01
2023-02-09T10:02:21.967Z,22.98
2023-02-09T10:04:51.016Z,22.98
2023-02-09T10:07:23.414Z,22.97
2023-02-09T10:09:58.988Z,22.94
2023-02-09T10:12:40.626Z,22.92
2023-02-09T10:15:29.272Z,22.91
2023-02-09T10:17:58.436Z,22.88
2023-02-09T10:20:45.601Z,22.86
2023-02-09T10:23:27.260Z,22.85
2023-02-09T10:25:56.940Z,22.82
2023-02-09T10:28:27.233Z,22.81
2023-02-09T10:30:57.200Z,22.78
2023-02-09T10:33:26.392Z,22.76
2023-02-09T10:35:56.253Z,22.75
2023-02-09T10:38:28.372Z,22.73
2023-02-09T10:40:57.435Z,22.71
2023-02-09T10:43:27.849Z,22.70
2023-02-09T10:45:58.410Z,22.69
2023-02-09T10:48:27.752Z,22.65
2023-02-09T10:51:10.412Z,22.65
2023-02-09T10:53:40.923Z,22.63
2023-02-09T10:56:21.964Z,22.61
2023-02-09T10:59:04.270Z,22.60
2023-02-09T11:01:37.627Z,22.56
2023-02-09T11:04:08.335Z,22.55
2023-02-09T11:06:38.880Z,22.55
2023-02-09T11:09:18.498Z,22.52
2023-02-09T11:11:48.195Z,22.51
2023-02-09T11:14:18.665Z,22.47
2023-02-09T11:17:01.241Z,22.46
2023-02-09T11:19:48.215Z,22.38
2023-02-09T11:22:28.920Z,22.43
2023-02-09T11:24:59.949Z,22.38
2023-02-09T11:27:33.692Z,22.40
2023-02-09T11:30:04.230Z,22.38
2023-02-09T11:32:34.664Z,22.38
2023-02-09T11:35:07.841Z,22.35
2023-02-09T11:37:37.937Z,22.34
2023-02-09T11:40:23.557Z,22.31
2023-02-09T11:42:57.024Z,22.29
2023-02-09T11:45:33.233Z,22.31
2023-02-09T11:48:09.644Z,22.32
2023-02-09T11:50:43.542Z,22.35
2023-02-09T11:53:17.372Z,22.38
2023-02-09T11:55:50.914Z,22.43
2023-02-09T11:58:24.425Z,22.48
2023-02-09T12:01:13.261Z,22.56
2023-02-09T12:03:31.685Z,22.63
2023-02-09T12:06:00.828Z,22.70
2023-02-09T12:08:34.381Z,22.78
2023-02-09T12:11:07.094Z,22.87
2023-02-09T12:13:40.765Z,22.94
2023-02-09T12:16:14.408Z,23.03
2023-02-09T12:18:43.502Z,23.11
2023-02-09T12:21:12.568Z,23.16
2023-02-09T12:23:43.082Z,23.22
2023-02-09T12:26:16.618Z,23.30
2023-02-09T12:29:03.810Z,23.37
2023-02-09T12:31:33.232Z,23.44
2023-02-09T12:34:06.721Z,23.53
2023-02-09T12:36:35.768Z,23.59
2023-02-09T12:39:24.210Z,23.67
2023-02-09T12:41:54.830Z,23.72
2023-02-09T12:44:25.586Z,23.80
2023-02-09T12:46:55.940Z,23.83
2023-02-09T12:49:32.912Z,23.87
2023-02-09T12:52:08.671Z,23.91
2023-02-09T12:54:47.428Z,23.97
2023-02-09T12:57:20.232Z,24.02
2023-02-09T12:59:54.186Z,24.07
2023-02-09T13:02:40.956Z,24.09
2023-02-09T13:05:27.914Z,24.22
2023-02-09T13:07:58.611Z,24.25
2023-02-09T13:10:29.208Z,24.30
2023-02-09T13:13:14.886Z,24.32
2023-02-09T13:15:51.383Z,24.37
2023-02-09T13:18:37.240Z,24.44
2023-02-09T13:21:14.215Z,24.49
2023-02-09T13:23:53.898Z,24.57
2023-02-09T13:26:27.673Z,24.62
2023-02-09T13:29:20.295Z,24.67
2023-02-09T13:31:48.191Z,24.70
2023-02-09T13:34:18.962Z,24.74
2023-02-09T13:36:54.838Z,24.77
2023-02-09T13:39:24.417Z,24.83
2023-02-09T13:41:54.559Z,24.88
2023-02-09T13:44:24.358Z,24.91
2023-02-09T13:46:59.611Z,24.95
2023-02-09T13:49:29.180Z,24.98
2023-02-09T13:52:16.800Z,25.02
2023-02-09T13:54:46.444Z,25.04
2023-02-09T13:57:34.335Z,25.09
2023-02-09T14:00:20.120Z,25.14
2023-02-09T14:02:50.170Z,25.18
2023-02-09T14:05:27.020Z,25.20
2023-02-09T14:07:56.329Z,25.23
2023-02-09T14:10:25.589Z,25.27
2023-02-09T14:13:00.682Z,25.31
2023-02-09T14:15:55.148Z,25.36
2023-02-09T14:18:25.716Z,25.39
2023-02-09T14:21:01.507Z,25.42
2023-02-09T14:23:32.569Z,25.46
2023-02-09T14:26:11.642Z,25.48
2023-02-09T14:28:40.814Z,25.51
2023-02-09T14:31:20.382Z,25.54
2023-02-09T14:33:50.685Z,25.57
2023-02-09T14:36:24.105Z,25.59
2023-02-09T14:38:53.161Z,25.59
2023-02-09T14:41:26.663Z,25.65
2023-02-09T14:44:03.250Z,25.69
2023-02-09T14:46:33.801Z,25.70
2023-02-09T14:49:02.924Z,25.73
2023-02-09T14:51:32.016Z,25.76
2023-02-09T14:54:02.585Z,25.78
2023-02-09T14:56:32.324Z,25.80
2023-02-09T14:59:01.555Z,25.83
2023-02-09T15:01:30.804Z,25.86
2023-02-09T15:04:00.040Z,25.89
2023-02-09T15:06:30.481Z,25.91
2023-02-09T15:09:01.013Z,25.94
2023-02-09T15:11:47.492Z,25.95
2023-02-09T15:14:16.536Z,25.98
2023-02-09T15:16:45.614Z,26.00
2023-02-09T15:19:15.716Z,26.03
2023-02-09T15:21:45.683Z,26.03
2023-02-09T15:24:15.502Z,26.00
2023-02-09T15:26:45.364Z,25.98
2023-02-09T15:29:14.694Z,25.96
2023-02-09T15:31:43.962Z,25.93
2023-02-09T15:34:14.679Z,25.90
2023-02-09T15:36:43.748Z,25.89
2023-02-09T15:39:14.367Z,25.86
2023-02-09T15:42:01.103Z,25.80
2023-02-09T15:44:47.439Z,25.78
2023-02-09T15:47:34.391Z,25.75
2023-02-09T15:50:03.732Z,25.71
2023-02-09T15:52:38.308Z,25.68
2023-02-09T15:55:07.625Z,25.66
2023-02-09T15:57:37.267Z,25.65
2023-02-09T16:00:07.788Z,25.63
2023-02-09T16:02:36.961Z,25.60
2023-02-09T16:05:06.170Z,25.58
2023-02-09T16:07:37.858Z,25.55
2023-02-09T16:10:07.082Z,25.53
2023-02-09T16:12:36.207Z,25.50
2023-02-09T16:15:05.421Z,25.47
2023-02-09T16:17:34.465Z,25.44
2023-02-09T16:20:04.290Z,25.40
2023-02-09T16:22:35.670Z,25.39
2023-02-09T16:25:04.723Z,25.36
2023-02-09T16:27:33.803Z,25.34
2023-02-09T16:30:03.125Z,25.30
2023-02-09T16:32:32.192Z,25.27
2023-02-09T16:35:15.994Z,25.25
2023-02-09T16:37:31.974Z,25.23
2023-02-09T16:40:01.704Z,25.21
2023-02-09T16:42:30.927Z,25.19
2023-02-09T16:45:01.023Z,25.17
2023-02-09T16:47:30.079Z,25.15
2023-02-09T16:50:04.499Z,25.13
2023-02-09T16:52:33.689Z,25.08
2023-02-09T16:55:03.045Z,25.05
2023-02-09T16:57:32.173Z,25.03
2023-02-09T17:00:01.209Z,25.03
2023-02-09T17:02:34.633Z,25.00
2023-02-09T17:05:04.270Z,24.95
2023-02-09T17:07:39.831Z,24.96
2023-02-09T17:10:06.097Z,24.97
2023-02-09T17:12:35.195Z,24.99
2023-02-09T17:15:04.310Z,25.01
2023-02-09T17:17:33.441Z,25.03
2023-02-09T17:20:03.368Z,25.05
2023-02-09T17:22:32.446Z,25.09
2023-02-09T17:25:01.669Z,25.13
2023-02-09T17:27:30.795Z,25.14
2023-02-09T17:30:00.032Z,25.17
2023-02-09T17:32:29.277Z,25.20
2023-02-09T17:34:58.336Z,25.22
2023-02-09T17:37:27.533Z,25.25
2023-02-09T17:39:58.890Z,25.28
2023-02-09T17:42:27.992Z,25.31
2023-02-09T17:44:57.668Z,25.33
2023-02-09T17:47:26.851Z,25.36
2023-02-09T17:49:55.897Z,25.38
2023-02-09T17:52:25.036Z,25.41
2023-02-09T17:54:55.077Z,25.43
2023-02-09T17:57:24.910Z,25.48
2023-02-09T17:59:54.072Z,25.50
2023-02-09T18:04:34.879Z,25.30
2023-02-09T18:07:04.946Z,25.13
2023-02-09T18:09:34.918Z,25.06
2023-02-09T18:12:08.107Z,25.06
2023-02-09T18:14:38.136Z,25.07
2023-02-09T18:17:08.218Z,25.07
2023-02-09T18:19:38.126Z,25.08
2023-02-09T18:22:08.051Z,25.09
2023-02-09T18:24:39.377Z,25.10
2023-02-09T18:27:09.538Z,25.10
2023-02-09T18:29:39.391Z,25.11
2023-02-09T18:32:09.375Z,25.11
2023-02-09T18:34:39.252Z,25.12
2023-02-09T18:37:09.250Z,25.13
2023-02-09T18:39:40.773Z,25.12
2023-02-09T18:42:11.329Z,25.11
2023-02-09T18:44:41.422Z,25.12
2023-02-09T18:47:11.903Z,25.06
2023-02-09T18:49:41.869Z,24.92
2023-02-09T18:52:11.746Z,24.81
2023-02-09T18:54:41.815Z,24.82
2023-02-09T18:57:11.731Z,24.85
2023-02-09T18:59:41.590Z,24.85
2023-02-09T19:02:14.273Z,24.87
2023-02-09T19:04:44.618Z,24.88
2023-02-09T19:07:14.924Z,24.89
2023-02-09T19:09:46.398Z,24.90
2023-02-09T19:12:16.417Z,24.90
2023-02-09T19:14:47.752Z,24.90
2023-02-09T19:17:20.419Z,24.90
2023-02-09T19:19:52.173Z,24.90
2023-02-09T19:22:23.326Z,24.89
2023-02-09T19:24:55.177Z,24.89
2023-02-09T19:27:25.335Z,24.89
2023-02-09T19:29:55.894Z,24.74
2023-02-09T19:32:26.426Z,24.74
2023-02-09T19:35:32.239Z,24.85
2023-02-09T19:38:01.767Z,24.85
2023-02-09T19:40:35.878Z,24.85
2023-02-09T19:43:06.779Z,24.85
2023-02-09T19:45:47.767Z,24.85
2023-02-09T19:48:18.426Z,24.82
2023-02-09T19:50:50.024Z,24.83
2023-02-09T19:53:25.167Z,24.81
2023-02-09T19:55:53.164Z,24.82
2023-02-09T19:58:24.440Z,24.82
2023-02-09T20:00:55.599Z,24.81
2023-02-09T20:03:26.555Z,24.80
2023-02-09T20:05:56.474Z,24.80
2023-02-09T20:08:26.917Z,24.78
2023-02-09T20:10:56.745Z,24.78
2023-02-09T20:13:36.351Z,24.78
2023-02-09T20:16:11.174Z,24.77
2023-02-09T20:18:41.543Z,24.74
2023-02-09T20:21:12.543Z,24.75
2023-02-09T20:23:43.529Z,24.73
2023-02-09T20:27:03.191Z,24.74
2023-02-09T20:29:13.866Z,24.72
2023-02-09T20:31:43.856Z,24.72
2023-02-09T20:34:14.981Z,24.71
2023-02-09T20:36:45.815Z,24.71
2023-02-09T20:39:18.925Z,24.70
2023-02-09T20:42:07.648Z,24.69
2023-02-09T20:44:55.102Z,24.67
2023-02-09T20:47:26.324Z,24.68
2023-02-09T20:49:58.204Z,24.67
2023-02-09T20:52:32.488Z,24.67
2023-02-09T20:55:02.628Z,24.66
2023-02-09T20:57:33.857Z,24.65
2023-02-09T21:00:14.463Z,24.62
2023-02-09T21:02:44.650Z,24.57
2023-02-09T21:05:14.910Z,24.55
2023-02-09T21:07:44.837Z,24.53
2023-02-09T21:10:16.258Z,24.54
2023-02-09T21:12:47.293Z,24.54
2023-02-09T21:20:27.853Z,24.57
2023-02-09T21:22:58.667Z,24.57
2023-02-09T21:25:29.718Z,24.57
2023-02-09T21:28:03.069Z,24.56
2023-02-09T21:30:33.467Z,24.58
2023-02-09T21:33:03.517Z,24.60
2023-02-09T21:35:33.668Z,24.59
2023-02-09T21:38:03.696Z,24.60
2023-02-09T21:40:33.637Z,24.60
2023-02-09T21:43:03.773Z,24.61
2023-02-09T21:45:35.401Z,24.62
2023-02-09T21:48:05.528Z,24.63
2023-02-09T21:50:37.668Z,24.62
2023-02-09T21:53:07.840Z,24.64
2023-02-09T21:55:37.825Z,24.64
2023-02-09T21:58:07.972Z,24.65
2023-02-09T22:00:37.835Z,24.66
2023-02-09T22:03:09.450Z,24.67
2023-02-09T22:05:47.637Z,24.66
2023-02-09T22:08:18.372Z,24.67
2023-02-09T22:13:41.863Z,24.67
2023-02-09T22:16:11.971Z,24.69
2023-02-09T22:18:42.216Z,24.68
2023-02-09T22:21:12.116Z,24.70
2023-02-09T22:23:42.152Z,24.70
2023-02-09T22:26:13.651Z,24.71
2023-02-09T22:28:43.840Z,24.72
2023-02-09T22:31:21.432Z,24.72
2023-02-09T22:33:54.663Z,24.73
2023-02-09T22:36:24.812Z,24.74
2023-02-09T22:38:54.749Z,24.74
2023-02-09T22:41:25.375Z,24.75
2023-02-09T22:44:00.143Z,24.75
2023-02-09T22:46:32.847Z,24.75
2023-02-09T22:49:05.745Z,24.77
2023-02-09T22:51:36.810Z,24.79
2023-02-09T22:54:06.747Z,24.78
2023-02-09T22:56:36.934Z,24.79
2023-02-09T22:59:06.789Z,24.80
2023-02-09T23:01:36.768Z,24.79
2023-02-09T23:04:06.960Z,24.79
2023-02-09T23:06:37.117Z,24.79
2023-02-09T23:09:08.210Z,24.81
2023-02-09T23:11:38.239Z,24.81
2023-02-09T23:14:10.806Z,24.82
2023-02-09T23:16:39.770Z,24.82
2023-02-09T23:19:12.008Z,24.81
2023-02-09T23:21:43.440Z,24.82
2023-02-09T23:24:13.779Z,24.82
2023-02-09T23:26:44.067Z,24.83
2023-02-09T23:29:15.307Z,24.82
2023-02-09T23:31:45.619Z,24.83
2023-02-09T23:34:23.075Z,24.83
2023-02-09T23:36:53.091Z,24.83
2023-02-09T23:39:23.855Z,24.83
2023-02-09T23:41:54.155Z,24.82
2023-02-09T23:44:24.166Z,24.83
2023-02-09T23:46:54.209Z,24.82
2023-02-09T23:49:27.217Z,24.82
2023-02-09T23:51:57.436Z,24.82
2023-02-09T23:54:29.028Z,24.80
2023-02-09T23:56:59.591Z,24.79
2023-02-09T23:59:30.711Z,24.77
